WMT113 LRCL-LOWW
Flight info
| Callsign | WMT113 |
|---|---|
| Flight time | N/A |
| Altitude | 34000 |
| Route | LARMU DCT IZDUW DCT BALUX DCT TORNO DCT NATEX NATEX2W |
| Aircraft | A320/M-SDE3FGHIRWY/LB1 |
Departure
| Time | 2026-05-04 19:07 |
|---|---|
| Airport | Avram Iancu Cluj International Airport (LRCL) |
Arrival
| Time | N/A |
|---|---|
| Airport | Vienna International Airport (LOWW) |
| Time | Latitude | Longitude | Altitude | Speed | Heading |
|---|---|---|---|---|---|
| 2026-05-04 18:40 | 46.78577 | 23.69413 | 1043 ft | 0 kts | 71° |
| 2026-05-04 18:59 | 46.78574 | 23.69402 | 1043 ft | 2 kts | 71° |
| 2026-05-04 18:59 | 46.78569 | 23.69378 | 1043 ft | 3 kts | 56° |
| 2026-05-04 18:59 | 46.78556 | 23.69359 | 1043 ft | 3 kts | 20° |
| 2026-05-04 19:00 | 46.78539 | 23.69352 | 1043 ft | 3 kts | 10° |
| 2026-05-04 19:00 | 46.78531 | 23.69351 | 1043 ft | 2 kts | 2° |
| 2026-05-04 19:00 | 46.78514 | 23.69350 | 1043 ft | 2 kts | 343° |
| 2026-05-04 19:00 | 46.78513 | 23.69351 | 1043 ft | 0 kts | 343° |
| 2026-05-04 19:01 | 46.78519 | 23.69348 | 1043 ft | 1 kts | 343° |
| 2026-05-04 19:02 | 46.78534 | 23.69342 | 1043 ft | 3 kts | 343° |
| 2026-05-04 19:02 | 46.78563 | 23.69330 | 1043 ft | 5 kts | 346° |
| 2026-05-04 19:02 | 46.78605 | 23.69312 | 1043 ft | 7 kts | 342° |
| 2026-05-04 19:02 | 46.78660 | 23.69283 | 1043 ft | 10 kts | 339° |
| 2026-05-04 19:03 | 46.78731 | 23.69250 | 1043 ft | 12 kts | 342° |
| 2026-05-04 19:03 | 46.78789 | 23.69223 | 1043 ft | 0 kts | 342° |
| 2026-05-04 19:03 | 46.78790 | 23.69222 | 1043 ft | 1 kts | 342° |
| 2026-05-04 19:04 | 46.78800 | 23.69217 | 1043 ft | 0 kts | 342° |
| 2026-05-04 19:04 | 46.78801 | 23.69217 | 1043 ft | 1 kts | 342° |
| 2026-05-04 19:04 | 46.78818 | 23.69208 | 1043 ft | 6 kts | 342° |
| 2026-05-04 19:04 | 46.78864 | 23.69187 | 1043 ft | 8 kts | 343° |
| 2026-05-04 19:05 | 46.78921 | 23.69209 | 1043 ft | 10 kts | 46° |
| 2026-05-04 19:05 | 46.78951 | 23.69317 | 1043 ft | 13 kts | 71° |
| 2026-05-04 19:05 | 46.78981 | 23.69450 | 1043 ft | 15 kts | 71° |
| 2026-05-04 19:05 | 46.78999 | 23.69603 | 1043 ft | 14 kts | 54° |
| 2026-05-04 19:06 | 46.79015 | 23.69595 | 1043 ft | 3 kts | 250° |
| 2026-05-04 19:06 | 46.79009 | 23.69575 | 1043 ft | 0 kts | 251° |
| 2026-05-04 19:07 | 46.78971 | 23.69393 | 1043 ft | 54 kts | 252° |
| 2026-05-04 19:07 | 46.78782 | 23.68553 | 1043 ft | 116 kts | 252° |
| 2026-05-04 19:07 | 46.78491 | 23.67273 | 1319 ft | 136 kts | 253° |
| 2026-05-04 19:07 | 46.78206 | 23.65970 | 1880 ft | 137 kts | 253° |
| 2026-05-04 19:08 | 46.77912 | 23.64653 | 2491 ft | 136 kts | 256° |
| 2026-05-04 19:08 | 46.77631 | 23.63335 | 2931 ft | 142 kts | 258° |
| 2026-05-04 19:08 | 46.77324 | 23.61858 | 3205 ft | 160 kts | 257° |
| 2026-05-04 19:08 | 46.76960 | 23.60208 | 3425 ft | 184 kts | 255° |
| 2026-05-04 19:09 | 46.76543 | 23.58338 | 3734 ft | 203 kts | 255° |
| 2026-05-04 19:09 | 46.76080 | 23.56283 | 4007 ft | 227 kts | 254° |
| 2026-05-04 19:09 | 46.75556 | 23.53959 | 4319 ft | 255 kts | 253° |
| 2026-05-04 19:09 | 46.74988 | 23.51467 | 4994 ft | 266 kts | 253° |
| 2026-05-04 19:10 | 46.74404 | 23.48881 | 5880 ft | 271 kts | 254° |
| 2026-05-04 19:10 | 46.74146 | 23.46162 | 6714 ft | 275 kts | 275° |
| 2026-05-04 19:10 | 46.74604 | 23.43426 | 7474 ft | 281 kts | 287° |
| 2026-05-04 19:10 | 46.75109 | 23.40639 | 8291 ft | 287 kts | 284° |
| 2026-05-04 19:11 | 46.75557 | 23.37785 | 9102 ft | 291 kts | 283° |
| 2026-05-04 19:11 | 46.75991 | 23.34870 | 9900 ft | 297 kts | 283° |
| 2026-05-04 19:11 | 46.76437 | 23.31868 | 10397 ft | 313 kts | 283° |
| 2026-05-04 19:11 | 46.76918 | 23.28668 | 10736 ft | 331 kts | 284° |
| 2026-05-04 19:12 | 46.77421 | 23.25357 | 11382 ft | 337 kts | 284° |
| 2026-05-04 19:12 | 46.78464 | 23.18602 | 12832 ft | 345 kts | 285° |
| 2026-05-04 19:12 | 46.79001 | 23.15175 | 13558 ft | 348 kts | 285° |
| 2026-05-04 19:13 | 46.79545 | 23.11709 | 14236 ft | 352 kts | 285° |
| 2026-05-04 19:13 | 46.80092 | 23.08209 | 14870 ft | 355 kts | 285° |
| 2026-05-04 19:13 | 46.80640 | 23.04682 | 15512 ft | 358 kts | 285° |
| 2026-05-04 19:13 | 46.81189 | 23.01126 | 16144 ft | 360 kts | 285° |
| 2026-05-04 19:14 | 46.81741 | 22.97546 | 16770 ft | 363 kts | 285° |
| 2026-05-04 19:14 | 46.82299 | 22.93932 | 17399 ft | 366 kts | 285° |
| 2026-05-04 19:14 | 46.82861 | 22.90295 | 18031 ft | 369 kts | 285° |
| 2026-05-04 19:14 | 46.83428 | 22.86627 | 18613 ft | 372 kts | 285° |
| 2026-05-04 19:15 | 46.83986 | 22.82981 | 19170 ft | 374 kts | 285° |
| 2026-05-04 19:15 | 46.84553 | 22.79257 | 19746 ft | 376 kts | 284° |
| 2026-05-04 19:15 | 46.85128 | 22.75466 | 20322 ft | 379 kts | 285° |
| 2026-05-04 19:15 | 46.85691 | 22.71752 | 20882 ft | 381 kts | 285° |
| 2026-05-04 19:16 | 46.86265 | 22.67964 | 21426 ft | 383 kts | 285° |
| 2026-05-04 19:16 | 46.86842 | 22.64155 | 21954 ft | 385 kts | 284° |
| 2026-05-04 19:16 | 46.87420 | 22.60329 | 22480 ft | 387 kts | 284° |
| 2026-05-04 19:16 | 46.88002 | 22.56482 | 23001 ft | 389 kts | 284° |
| 2026-05-04 19:17 | 46.88586 | 22.52605 | 23543 ft | 391 kts | 284° |
| 2026-05-04 19:17 | 46.89159 | 22.48706 | 23993 ft | 393 kts | 284° |
| 2026-05-04 19:17 | 46.89737 | 22.44779 | 24418 ft | 396 kts | 284° |
| 2026-05-04 19:17 | 46.90326 | 22.40842 | 24843 ft | 398 kts | 284° |
| 2026-05-04 19:18 | 46.90921 | 22.36878 | 25257 ft | 400 kts | 284° |
| 2026-05-04 19:18 | 46.91515 | 22.32892 | 25656 ft | 402 kts | 284° |
| 2026-05-04 19:18 | 46.91917 | 22.30186 | 25938 ft | 404 kts | 284° |
| 2026-05-04 19:18 | 46.92710 | 22.24851 | 26491 ft | 407 kts | 285° |
| 2026-05-04 19:19 | 46.93308 | 22.20799 | 26914 ft | 409 kts | 285° |
| 2026-05-04 19:19 | 46.93713 | 22.18048 | 27182 ft | 410 kts | 285° |
| 2026-05-04 19:19 | 46.94304 | 22.14000 | 27571 ft | 413 kts | 285° |
| 2026-05-04 19:19 | 46.94903 | 22.09883 | 27966 ft | 415 kts | 285° |
| 2026-05-04 19:20 | 46.95506 | 22.05740 | 28360 ft | 417 kts | 285° |
| 2026-05-04 19:20 | 46.96111 | 22.01577 | 28745 ft | 419 kts | 285° |
| 2026-05-04 19:20 | 46.96718 | 21.97394 | 29127 ft | 422 kts | 285° |
| 2026-05-04 19:20 | 46.97328 | 21.93182 | 29515 ft | 424 kts | 285° |
| 2026-05-04 19:21 | 46.97939 | 21.88945 | 29900 ft | 426 kts | 285° |
| 2026-05-04 19:21 | 46.98552 | 21.84685 | 30259 ft | 429 kts | 285° |
| 2026-05-04 19:21 | 46.99167 | 21.80405 | 30592 ft | 431 kts | 285° |
| 2026-05-04 19:21 | 46.99784 | 21.76088 | 30927 ft | 433 kts | 285° |
| 2026-05-04 19:22 | 47.00400 | 21.71762 | 31255 ft | 435 kts | 285° |
| 2026-05-04 19:22 | 47.01017 | 21.67406 | 31567 ft | 437 kts | 285° |
| 2026-05-04 19:22 | 47.01637 | 21.63038 | 31892 ft | 439 kts | 285° |
| 2026-05-04 19:22 | 47.02260 | 21.58647 | 32056 ft | 440 kts | 285° |
| 2026-05-04 19:23 | 47.02879 | 21.54261 | 32078 ft | 440 kts | 285° |
| 2026-05-04 19:23 | 47.04108 | 21.45490 | 32073 ft | 439 kts | 285° |
| 2026-05-04 19:24 | 47.05325 | 21.36719 | 32073 ft | 439 kts | 284° |
| 2026-05-04 19:24 | 47.06541 | 21.27947 | 32071 ft | 439 kts | 284° |
| 2026-05-04 19:25 | 47.07750 | 21.19182 | 32069 ft | 438 kts | 284° |
| 2026-05-04 19:25 | 47.08952 | 21.10421 | 32070 ft | 438 kts | 284° |
| 2026-05-04 19:26 | 47.10148 | 21.01653 | 32070 ft | 438 kts | 284° |
| 2026-05-04 19:26 | 47.11325 | 20.92953 | 32069 ft | 438 kts | 284° |
| 2026-05-04 19:27 | 47.12488 | 20.84260 | 31759 ft | 425 kts | 283° |
| 2026-05-04 19:27 | 47.13047 | 20.80043 | 31504 ft | 416 kts | 284° |
| 2026-05-04 19:27 | 47.13594 | 20.75922 | 31251 ft | 407 kts | 284° |
| 2026-05-04 19:27 | 47.14131 | 20.71874 | 30998 ft | 401 kts | 284° |
| 2026-05-04 19:28 | 47.14662 | 20.67877 | 30748 ft | 398 kts | 284° |
| 2026-05-04 19:28 | 47.15191 | 20.63904 | 30503 ft | 396 kts | 283° |
| 2026-05-04 19:28 | 47.15718 | 20.59948 | 30266 ft | 394 kts | 283° |
| 2026-05-04 19:28 | 47.16241 | 20.56007 | 29994 ft | 392 kts | 283° |
| 2026-05-04 19:29 | 47.16756 | 20.52081 | 29707 ft | 390 kts | 283° |
| 2026-05-04 19:29 | 47.17268 | 20.48170 | 29425 ft | 389 kts | 283° |
| 2026-05-04 19:29 | 47.17776 | 20.44281 | 29141 ft | 387 kts | 283° |
| 2026-05-04 19:29 | 47.18281 | 20.40402 | 28860 ft | 386 kts | 283° |
| 2026-05-04 19:30 | 47.18781 | 20.36529 | 28586 ft | 384 kts | 283° |
| 2026-05-04 19:30 | 47.19277 | 20.32684 | 28318 ft | 382 kts | 283° |
| 2026-05-04 19:30 | 47.19770 | 20.28850 | 28045 ft | 381 kts | 283° |
| 2026-05-04 19:30 | 47.20262 | 20.25029 | 27778 ft | 379 kts | 283° |
| 2026-05-04 19:31 | 47.20751 | 20.21227 | 27513 ft | 378 kts | 283° |
| 2026-05-04 19:31 | 47.21237 | 20.17438 | 27252 ft | 376 kts | 282° |
| 2026-05-04 19:31 | 47.21722 | 20.13663 | 26991 ft | 375 kts | 282° |
| 2026-05-04 19:31 | 47.22203 | 20.09900 | 26733 ft | 374 kts | 282° |
| 2026-05-04 19:32 | 47.22680 | 20.06148 | 26480 ft | 372 kts | 282° |
| 2026-05-04 19:32 | 47.23154 | 20.02405 | 26226 ft | 371 kts | 282° |
| 2026-05-04 19:32 | 47.23626 | 19.98681 | 25976 ft | 370 kts | 282° |
| 2026-05-04 19:32 | 47.24089 | 19.95014 | 25731 ft | 368 kts | 282° |
| 2026-05-04 19:33 | 47.24551 | 19.91310 | 25487 ft | 367 kts | 282° |
| 2026-05-04 19:33 | 47.25015 | 19.87567 | 25238 ft | 366 kts | 281° |
| 2026-05-04 19:33 | 47.25462 | 19.83941 | 24998 ft | 365 kts | 281° |
| 2026-05-04 19:33 | 47.25915 | 19.80270 | 24764 ft | 363 kts | 281° |
| 2026-05-04 19:34 | 47.26369 | 19.76613 | 24529 ft | 362 kts | 281° |
| 2026-05-04 19:34 | 47.26824 | 19.72966 | 24290 ft | 361 kts | 281° |
| 2026-05-04 19:34 | 47.27277 | 19.69344 | 24062 ft | 360 kts | 281° |
| 2026-05-04 19:34 | 47.27777 | 19.65745 | 23825 ft | 358 kts | 287° |
| 2026-05-04 19:35 | 47.28547 | 19.62259 | 23580 ft | 357 kts | 289° |
| 2026-05-04 19:35 | 47.29333 | 19.58799 | 23312 ft | 356 kts | 289° |
| 2026-05-04 19:35 | 47.30120 | 19.55352 | 23036 ft | 354 kts | 289° |
| 2026-05-04 19:35 | 47.30904 | 19.51917 | 22771 ft | 353 kts | 289° |
| 2026-05-04 19:36 | 47.31683 | 19.48498 | 22491 ft | 352 kts | 289° |
| 2026-05-04 19:36 | 47.32460 | 19.45088 | 22230 ft | 350 kts | 289° |
| 2026-05-04 19:36 | 47.33233 | 19.41692 | 21961 ft | 349 kts | 288° |
| 2026-05-04 19:36 | 47.34001 | 19.38310 | 21700 ft | 347 kts | 288° |
| 2026-05-04 19:37 | 47.34762 | 19.34938 | 21439 ft | 346 kts | 288° |
| 2026-05-04 19:37 | 47.35516 | 19.31572 | 21181 ft | 345 kts | 288° |
| 2026-05-04 19:37 | 47.36276 | 19.28226 | 20929 ft | 343 kts | 289° |
| 2026-05-04 19:37 | 47.37045 | 19.24899 | 20674 ft | 342 kts | 289° |
| 2026-05-04 19:38 | 47.37812 | 19.21582 | 20456 ft | 341 kts | 288° |
| 2026-05-04 19:38 | 47.38405 | 19.18996 | 20263 ft | 340 kts | 288° |
| 2026-05-04 19:38 | 47.39154 | 19.15697 | 20076 ft | 339 kts | 288° |
| 2026-05-04 19:38 | 47.39896 | 19.12393 | 20054 ft | 339 kts | 288° |
| 2026-05-04 19:39 | 47.40633 | 19.09089 | 20058 ft | 339 kts | 288° |
| 2026-05-04 19:39 | 47.41364 | 19.05783 | 20055 ft | 339 kts | 287° |
| 2026-05-04 19:39 | 47.42093 | 19.02471 | 20054 ft | 339 kts | 287° |
| 2026-05-04 19:39 | 47.42821 | 18.99163 | 20055 ft | 339 kts | 287° |
| 2026-05-04 19:40 | 47.43548 | 18.95863 | 20051 ft | 339 kts | 287° |
| 2026-05-04 19:40 | 47.44280 | 18.92544 | 20052 ft | 339 kts | 287° |
| 2026-05-04 19:40 | 47.45010 | 18.89233 | 20052 ft | 339 kts | 287° |
| 2026-05-04 19:40 | 47.45739 | 18.85924 | 20050 ft | 339 kts | 287° |
| 2026-05-04 19:41 | 47.46467 | 18.82616 | 20047 ft | 338 kts | 287° |
| 2026-05-04 19:41 | 47.47195 | 18.79306 | 20046 ft | 338 kts | 287° |
| 2026-05-04 19:41 | 47.47921 | 18.76001 | 20048 ft | 338 kts | 287° |
| 2026-05-04 19:41 | 47.48646 | 18.72692 | 20042 ft | 338 kts | 287° |
| 2026-05-04 19:42 | 47.49370 | 18.69377 | 20040 ft | 338 kts | 287° |
| 2026-05-04 19:42 | 47.50093 | 18.66069 | 20041 ft | 338 kts | 287° |
| 2026-05-04 19:42 | 47.50816 | 18.62770 | 20037 ft | 333 kts | 287° |
| 2026-05-04 19:42 | 47.51551 | 18.59576 | 20036 ft | 324 kts | 288° |
| 2026-05-04 19:43 | 47.52281 | 18.56463 | 20040 ft | 317 kts | 288° |
| 2026-05-04 19:43 | 47.52987 | 18.53412 | 20036 ft | 310 kts | 288° |
| 2026-05-04 19:43 | 47.53662 | 18.50407 | 20036 ft | 305 kts | 287° |
| 2026-05-04 19:43 | 47.54307 | 18.47450 | 20033 ft | 295 kts | 286° |
| 2026-05-04 19:44 | 47.54890 | 18.44621 | 20032 ft | 280 kts | 285° |
| 2026-05-04 19:44 | 47.55420 | 18.41972 | 20032 ft | 267 kts | 285° |
| 2026-05-04 19:44 | 47.55943 | 18.39382 | 20030 ft | 254 kts | 285° |
| 2026-05-04 19:44 | 47.56455 | 18.36907 | 20033 ft | 245 kts | 286° |
| 2026-05-04 19:45 | 47.56958 | 18.34535 | 20030 ft | 244 kts | 283° |
| 2026-05-04 19:45 | 47.57091 | 18.32026 | 20006 ft | 242 kts | 258° |